Terminal Aerodrome Forecast
Issued by NWS Boston, MA

Home | Current Version | Previous Version | Text Only | Print | Product List | Glossary On
Versions: 1 2 3 4 5 6 7 8 9 10 11 12 13 14 15 16 17 18 19 20 21 22 23 24 25 26 27 28 29 30 31 32 33 34 35 36 37 38 39 40 41 42 43 44 45 46 47 48 49
000
FTUS41 KBOX 302032 AAA
TAFPVD
TAF AMD
KPVD 302032Z 3021/3118 20016G24KT P6SM FEW040
     FM310000 20013G21KT P6SM SCT025
     FM310300 21010G19KT P6SM BKN008
     FM310600 21009KT P6SM BKN003
     FM311200 21009KT P6SM BKN008
     FM311600 21009KT 5SM -SHRA BKN003=

USA.gov is the U.S. government's official web portal to all federal, state and local government web resources and services.